sensor_id;sensor_type;location;lat;lon;timestamp;P1;durP1;ratioP1;P2;durP2;ratioP2
5845;SDS011;2949;50.778;7.094;2022-08-26T00:02:21;9.97;;;4.80;;
5845;SDS011;2949;50.778;7.094;2022-08-26T00:04:47;8.27;;;4.33;;
5845;SDS011;2949;50.778;7.094;2022-08-26T00:07:13;5.63;;;4.67;;
5845;SDS011;2949;50.778;7.094;2022-08-26T00:09:38;7.90;;;4.47;;
5845;SDS011;2949;50.778;7.094;2022-08-26T00:12:04;6.80;;;5.10;;
5845;SDS011;2949;50.778;7.094;2022-08-26T00:14:30;15.33;;;5.23;;
5845;SDS011;2949;50.778;7.094;2022-08-26T00:16:55;12.43;;;5.67;;
5845;SDS011;2949;50.778;7.094;2022-08-26T00:19:21;13.73;;;5.83;;
5845;SDS011;2949;50.778;7.094;2022-08-26T00:21:47;9.93;;;5.27;;
5845;SDS011;2949;50.778;7.094;2022-08-26T00:24:14;15.77;;;6.43;;
5845;SDS011;2949;50.778;7.094;2022-08-26T00:26:39;9.10;;;6.10;;
5845;SDS011;2949;50.778;7.094;2022-08-26T00:29:05;12.70;;;7.33;;
5845;SDS011;2949;50.778;7.094;2022-08-26T00:33:56;13.10;;;7.80;;
5845;SDS011;2949;50.778;7.094;2022-08-26T00:36:22;9.00;;;7.43;;
5845;SDS011;2949;50.778;7.094;2022-08-26T00:38:47;18.20;;;10.57;;
5845;SDS011;2949;50.778;7.094;2022-08-26T00:41:13;20.67;;;10.43;;
5845;SDS011;2949;50.778;7.094;2022-08-26T00:43:39;17.27;;;12.90;;
5845;SDS011;2949;50.778;7.094;2022-08-26T00:48:42;18.67;;;14.40;;
5845;SDS011;2949;50.778;7.094;2022-08-26T00:51:13;26.00;;;15.93;;
5845;SDS011;2949;50.778;7.094;2022-08-26T00:53:53;27.30;;;19.33;;
5845;SDS011;2949;50.778;7.094;2022-08-26T00:56:28;29.10;;;20.80;;
5845;SDS011;2949;50.778;7.094;2022-08-26T00:59:00;30.90;;;23.20;;
5845;SDS011;2949;50.778;7.094;2022-08-26T01:01:28;31.10;;;23.80;;
5845;SDS011;2949;50.778;7.094;2022-08-26T01:03:55;39.43;;;25.23;;
5845;SDS011;2949;50.778;7.094;2022-08-26T01:06:21;39.27;;;28.23;;
5845;SDS011;2949;50.778;7.094;2022-08-26T01:08:48;39.60;;;26.13;;
5845;SDS011;2949;50.778;7.094;2022-08-26T01:11:13;46.63;;;30.17;;
5845;SDS011;2949;50.778;7.094;2022-08-26T01:13:40;41.33;;;30.13;;
5845;SDS011;2949;50.778;7.094;2022-08-26T01:16:06;47.47;;;32.00;;
5845;SDS011;2949;50.778;7.094;2022-08-26T01:18:38;48.37;;;31.73;;
5845;SDS011;2949;50.778;7.094;2022-08-26T01:21:23;47.30;;;32.00;;
5845;SDS011;2949;50.778;7.094;2022-08-26T01:23:53;50.47;;;35.43;;
5845;SDS011;2949;50.778;7.094;2022-08-26T01:26:24;46.57;;;34.00;;
5845;SDS011;2949;50.778;7.094;2022-08-26T01:28:57;48.60;;;34.40;;
5845;SDS011;2949;50.778;7.094;2022-08-26T01:31:26;52.03;;;36.53;;
5845;SDS011;2949;50.778;7.094;2022-08-26T01:33:57;56.13;;;36.77;;
5845;SDS011;2949;50.778;7.094;2022-08-26T01:36:35;67.60;;;36.87;;
5845;SDS011;2949;50.778;7.094;2022-08-26T01:39:02;53.80;;;38.37;;
5845;SDS011;2949;50.778;7.094;2022-08-26T01:41:28;53.37;;;38.70;;
5845;SDS011;2949;50.778;7.094;2022-08-26T01:43:55;51.93;;;39.80;;
5845;SDS011;2949;50.778;7.094;2022-08-26T01:46:21;61.43;;;38.67;;
5845;SDS011;2949;50.778;7.094;2022-08-26T01:48:50;60.50;;;40.77;;
5845;SDS011;2949;50.778;7.094;2022-08-26T01:51:18;70.23;;;40.03;;
5845;SDS011;2949;50.778;7.094;2022-08-26T01:53:45;57.00;;;40.47;;
5845;SDS011;2949;50.778;7.094;2022-08-26T01:56:11;61.33;;;42.37;;
5845;SDS011;2949;50.778;7.094;2022-08-26T01:58:39;57.53;;;39.70;;
5845;SDS011;2949;50.778;7.094;2022-08-26T02:01:09;61.67;;;39.27;;
5845;SDS011;2949;50.778;7.094;2022-08-26T02:03:35;62.43;;;41.70;;
5845;SDS011;2949;50.778;7.094;2022-08-26T02:06:10;58.50;;;42.07;;
5845;SDS011;2949;50.778;7.094;2022-08-26T02:08:37;71.13;;;43.13;;
5845;SDS011;2949;50.778;7.094;2022-08-26T02:11:14;69.43;;;44.47;;
5845;SDS011;2949;50.778;7.094;2022-08-26T02:13:42;62.70;;;44.07;;
5845;SDS011;2949;50.778;7.094;2022-08-26T02:16:21;63.97;;;45.97;;
5845;SDS011;2949;50.778;7.094;2022-08-26T02:18:49;68.40;;;44.67;;
5845;SDS011;2949;50.778;7.094;2022-08-26T02:21:15;74.63;;;48.37;;
5845;SDS011;2949;50.778;7.094;2022-08-26T02:23:41;70.93;;;45.90;;
5845;SDS011;2949;50.778;7.094;2022-08-26T02:26:12;88.93;;;47.33;;
5845;SDS011;2949;50.778;7.094;2022-08-26T02:28:50;59.27;;;45.23;;
5845;SDS011;2949;50.778;7.094;2022-08-26T02:31:19;66.00;;;44.83;;
5845;SDS011;2949;50.778;7.094;2022-08-26T02:33:44;67.20;;;45.50;;
5845;SDS011;2949;50.778;7.094;2022-08-26T02:36:10;67.10;;;43.63;;
5845;SDS011;2949;50.778;7.094;2022-08-26T02:38:36;60.70;;;43.33;;
5845;SDS011;2949;50.778;7.094;2022-08-26T02:41:02;69.27;;;46.10;;
5845;SDS011;2949;50.778;7.094;2022-08-26T02:43:28;69.77;;;47.43;;
5845;SDS011;2949;50.778;7.094;2022-08-26T02:45:54;74.50;;;46.97;;
5845;SDS011;2949;50.778;7.094;2022-08-26T02:48:19;71.00;;;45.60;;
5845;SDS011;2949;50.778;7.094;2022-08-26T02:50:46;61.97;;;43.77;;
5845;SDS011;2949;50.778;7.094;2022-08-26T02:53:12;78.20;;;47.93;;
5845;SDS011;2949;50.778;7.094;2022-08-26T02:55:38;80.10;;;46.20;;
5845;SDS011;2949;50.778;7.094;2022-08-26T02:58:05;65.77;;;42.03;;
5845;SDS011;2949;50.778;7.094;2022-08-26T03:00:31;65.47;;;44.03;;
5845;SDS011;2949;50.778;7.094;2022-08-26T03:02:59;69.23;;;44.23;;
5845;SDS011;2949;50.778;7.094;2022-08-26T03:05:25;62.33;;;40.97;;
5845;SDS011;2949;50.778;7.094;2022-08-26T03:07:50;75.27;;;44.37;;
5845;SDS011;2949;50.778;7.094;2022-08-26T03:10:17;60.77;;;41.57;;
5845;SDS011;2949;50.778;7.094;2022-08-26T03:12:43;73.93;;;43.10;;
5845;SDS011;2949;50.778;7.094;2022-08-26T03:15:09;67.53;;;43.60;;
5845;SDS011;2949;50.778;7.094;2022-08-26T03:17:37;66.57;;;40.40;;
5845;SDS011;2949;50.778;7.094;2022-08-26T03:20:03;68.57;;;41.83;;
5845;SDS011;2949;50.778;7.094;2022-08-26T03:22:33;63.10;;;40.60;;
5845;SDS011;2949;50.778;7.094;2022-08-26T03:24:59;67.77;;;42.60;;
5845;SDS011;2949;50.778;7.094;2022-08-26T03:27:25;64.77;;;42.10;;
5845;SDS011;2949;50.778;7.094;2022-08-26T03:29:51;59.83;;;40.30;;
5845;SDS011;2949;50.778;7.094;2022-08-26T03:32:35;59.63;;;41.30;;
5845;SDS011;2949;50.778;7.094;2022-08-26T03:35:01;76.33;;;46.60;;
5845;SDS011;2949;50.778;7.094;2022-08-26T03:37:27;66.97;;;41.33;;
5845;SDS011;2949;50.778;7.094;2022-08-26T03:39:52;76.77;;;43.97;;
5845;SDS011;2949;50.778;7.094;2022-08-26T03:42:18;76.17;;;41.87;;
5845;SDS011;2949;50.778;7.094;2022-08-26T03:44:43;69.77;;;43.73;;
5845;SDS011;2949;50.778;7.094;2022-08-26T03:47:09;60.70;;;40.10;;
5845;SDS011;2949;50.778;7.094;2022-08-26T03:49:34;63.53;;;40.73;;
5845;SDS011;2949;50.778;7.094;2022-08-26T03:52:01;73.50;;;43.57;;
5845;SDS011;2949;50.778;7.094;2022-08-26T03:54:27;63.33;;;41.77;;
5845;SDS011;2949;50.778;7.094;2022-08-26T03:56:52;67.43;;;43.10;;
5845;SDS011;2949;50.778;7.094;2022-08-26T03:59:18;68.23;;;40.83;;
5845;SDS011;2949;50.778;7.094;2022-08-26T04:01:44;69.30;;;41.57;;
5845;SDS011;2949;50.778;7.094;2022-08-26T04:04:09;70.60;;;43.73;;
5845;SDS011;2949;50.778;7.094;2022-08-26T04:06:37;67.70;;;40.17;;
5845;SDS011;2949;50.778;7.094;2022-08-26T04:09:05;58.20;;;41.77;;
5845;SDS011;2949;50.778;7.094;2022-08-26T04:11:33;72.30;;;44.47;;
5845;SDS011;2949;50.778;7.094;2022-08-26T04:14:02;73.27;;;42.17;;
5845;SDS011;2949;50.778;7.094;2022-08-26T04:16:31;73.87;;;41.53;;
5845;SDS011;2949;50.778;7.094;2022-08-26T04:18:58;64.63;;;39.97;;
5845;SDS011;2949;50.778;7.094;2022-08-26T04:21:24;75.90;;;44.40;;
5845;SDS011;2949;50.778;7.094;2022-08-26T04:23:51;66.83;;;43.17;;
5845;SDS011;2949;50.778;7.094;2022-08-26T04:26:18;74.20;;;44.07;;
5845;SDS011;2949;50.778;7.094;2022-08-26T04:28:45;72.97;;;45.37;;
5845;SDS011;2949;50.778;7.094;2022-08-26T04:31:16;76.47;;;44.53;;
5845;SDS011;2949;50.778;7.094;2022-08-26T04:33:43;81.87;;;45.50;;
5845;SDS011;2949;50.778;7.094;2022-08-26T04:36:10;82.47;;;45.57;;
5845;SDS011;2949;50.778;7.094;2022-08-26T04:38:36;93.67;;;46.27;;
5845;SDS011;2949;50.778;7.094;2022-08-26T04:41:02;75.97;;;43.03;;
5845;SDS011;2949;50.778;7.094;2022-08-26T04:43:29;74.67;;;44.40;;
5845;SDS011;2949;50.778;7.094;2022-08-26T04:46:01;90.10;;;48.77;;
5845;SDS011;2949;50.778;7.094;2022-08-26T04:48:28;76.70;;;44.90;;
5845;SDS011;2949;50.778;7.094;2022-08-26T04:50:55;83.37;;;46.13;;
5845;SDS011;2949;50.778;7.094;2022-08-26T04:53:20;83.03;;;43.83;;
5845;SDS011;2949;50.778;7.094;2022-08-26T04:55:46;78.23;;;43.07;;
5845;SDS011;2949;50.778;7.094;2022-08-26T04:58:16;81.87;;;46.10;;
5845;SDS011;2949;50.778;7.094;2022-08-26T05:00:43;85.27;;;44.80;;
5845;SDS011;2949;50.778;7.094;2022-08-26T05:03:10;74.07;;;44.80;;
5845;SDS011;2949;50.778;7.094;2022-08-26T05:05:36;76.27;;;42.30;;
5845;SDS011;2949;50.778;7.094;2022-08-26T05:08:06;76.03;;;43.50;;
5845;SDS011;2949;50.778;7.094;2022-08-26T05:10:37;72.73;;;41.57;;
5845;SDS011;2949;50.778;7.094;2022-08-26T05:13:06;72.40;;;40.57;;
5845;SDS011;2949;50.778;7.094;2022-08-26T05:15:32;77.53;;;43.20;;
5845;SDS011;2949;50.778;7.094;2022-08-26T05:18:00;71.17;;;42.10;;
5845;SDS011;2949;50.778;7.094;2022-08-26T05:20:27;76.70;;;41.93;;
5845;SDS011;2949;50.778;7.094;2022-08-26T05:22:52;86.00;;;44.40;;
5845;SDS011;2949;50.778;7.094;2022-08-26T05:25:18;74.23;;;41.67;;
5845;SDS011;2949;50.778;7.094;2022-08-26T05:27:44;68.70;;;39.77;;
5845;SDS011;2949;50.778;7.094;2022-08-26T05:30:09;77.37;;;41.80;;
5845;SDS011;2949;50.778;7.094;2022-08-26T05:32:35;70.77;;;39.63;;
5845;SDS011;2949;50.778;7.094;2022-08-26T05:35:01;67.13;;;38.40;;
5845;SDS011;2949;50.778;7.094;2022-08-26T05:37:26;72.90;;;38.50;;
5845;SDS011;2949;50.778;7.094;2022-08-26T05:39:52;66.33;;;37.13;;
5845;SDS011;2949;50.778;7.094;2022-08-26T05:42:17;75.87;;;38.07;;
5845;SDS011;2949;50.778;7.094;2022-08-26T05:44:44;69.73;;;40.97;;
5845;SDS011;2949;50.778;7.094;2022-08-26T05:47:09;68.70;;;38.23;;
5845;SDS011;2949;50.778;7.094;2022-08-26T05:49:35;65.20;;;37.17;;
5845;SDS011;2949;50.778;7.094;2022-08-26T05:52:02;67.67;;;38.33;;
5845;SDS011;2949;50.778;7.094;2022-08-26T05:54:27;57.13;;;34.33;;
5845;SDS011;2949;50.778;7.094;2022-08-26T05:56:53;58.13;;;33.10;;
5845;SDS011;2949;50.778;7.094;2022-08-26T05:59:19;58.17;;;32.90;;
5845;SDS011;2949;50.778;7.094;2022-08-26T06:01:44;57.63;;;33.17;;
5845;SDS011;2949;50.778;7.094;2022-08-26T06:04:10;55.07;;;32.60;;
5845;SDS011;2949;50.778;7.094;2022-08-26T06:06:36;50.97;;;33.27;;
5845;SDS011;2949;50.778;7.094;2022-08-26T06:09:05;67.87;;;34.00;;
5845;SDS011;2949;50.778;7.094;2022-08-26T06:11:32;54.33;;;33.73;;
5845;SDS011;2949;50.778;7.094;2022-08-26T06:13:59;57.43;;;33.80;;
5845;SDS011;2949;50.778;7.094;2022-08-26T06:16:26;60.40;;;33.33;;
5845;SDS011;2949;50.778;7.094;2022-08-26T06:18:52;55.93;;;30.73;;
5845;SDS011;2949;50.778;7.094;2022-08-26T06:21:22;55.93;;;31.30;;
5845;SDS011;2949;50.778;7.094;2022-08-26T06:23:50;55.03;;;30.00;;
5845;SDS011;2949;50.778;7.094;2022-08-26T06:26:36;53.57;;;31.17;;
5845;SDS011;2949;50.778;7.094;2022-08-26T06:29:03;50.13;;;29.70;;
5845;SDS011;2949;50.778;7.094;2022-08-26T06:31:30;50.77;;;29.17;;
5845;SDS011;2949;50.778;7.094;2022-08-26T06:33:57;47.90;;;29.57;;
5845;SDS011;2949;50.778;7.094;2022-08-26T06:36:24;48.17;;;28.20;;
5845;SDS011;2949;50.778;7.094;2022-08-26T06:38:53;38.67;;;26.37;;
5845;SDS011;2949;50.778;7.094;2022-08-26T06:41:19;46.50;;;30.17;;
5845;SDS011;2949;50.778;7.094;2022-08-26T06:43:46;45.40;;;29.30;;
5845;SDS011;2949;50.778;7.094;2022-08-26T06:46:13;60.43;;;30.40;;
5845;SDS011;2949;50.778;7.094;2022-08-26T06:48:41;52.47;;;30.30;;
5845;SDS011;2949;50.778;7.094;2022-08-26T06:51:09;51.47;;;32.10;;
5845;SDS011;2949;50.778;7.094;2022-08-26T06:53:40;52.00;;;31.13;;
5845;SDS011;2949;50.778;7.094;2022-08-26T06:56:09;56.00;;;30.60;;
5845;SDS011;2949;50.778;7.094;2022-08-26T06:58:36;53.67;;;29.90;;
5845;SDS011;2949;50.778;7.094;2022-08-26T07:01:04;50.43;;;29.03;;
5845;SDS011;2949;50.778;7.094;2022-08-26T07:03:37;48.17;;;27.13;;
5845;SDS011;2949;50.778;7.094;2022-08-26T07:06:03;49.00;;;29.70;;
5845;SDS011;2949;50.778;7.094;2022-08-26T07:08:29;51.70;;;28.50;;
5845;SDS011;2949;50.778;7.094;2022-08-26T07:10:54;51.60;;;27.73;;
5845;SDS011;2949;50.778;7.094;2022-08-26T07:13:21;50.60;;;29.97;;
5845;SDS011;2949;50.778;7.094;2022-08-26T07:15:47;44.03;;;27.70;;
5845;SDS011;2949;50.778;7.094;2022-08-26T07:18:13;62.37;;;32.87;;
5845;SDS011;2949;50.778;7.094;2022-08-26T07:20:39;49.47;;;28.00;;
5845;SDS011;2949;50.778;7.094;2022-08-26T07:23:06;48.93;;;28.20;;
5845;SDS011;2949;50.778;7.094;2022-08-26T07:25:32;46.57;;;29.20;;
5845;SDS011;2949;50.778;7.094;2022-08-26T07:28:01;51.30;;;28.33;;
5845;SDS011;2949;50.778;7.094;2022-08-26T07:30:27;48.40;;;26.60;;
5845;SDS011;2949;50.778;7.094;2022-08-26T07:32:54;46.73;;;27.23;;
5845;SDS011;2949;50.778;7.094;2022-08-26T07:35:20;40.77;;;25.93;;
5845;SDS011;2949;50.778;7.094;2022-08-26T07:37:46;51.27;;;28.33;;
5845;SDS011;2949;50.778;7.094;2022-08-26T07:40:12;50.20;;;29.03;;
5845;SDS011;2949;50.778;7.094;2022-08-26T07:42:37;42.87;;;26.40;;
5845;SDS011;2949;50.778;7.094;2022-08-26T07:45:04;53.13;;;29.67;;
5845;SDS011;2949;50.778;7.094;2022-08-26T07:47:30;49.07;;;28.53;;
5845;SDS011;2949;50.778;7.094;2022-08-26T07:49:55;46.97;;;27.43;;
5845;SDS011;2949;50.778;7.094;2022-08-26T07:52:22;44.67;;;23.43;;
5845;SDS011;2949;50.778;7.094;2022-08-26T07:54:49;41.83;;;24.43;;
5845;SDS011;2949;50.778;7.094;2022-08-26T07:57:15;41.90;;;22.57;;
5845;SDS011;2949;50.778;7.094;2022-08-26T07:59:40;44.73;;;23.77;;
5845;SDS011;2949;50.778;7.094;2022-08-26T08:02:06;43.37;;;23.67;;
5845;SDS011;2949;50.778;7.094;2022-08-26T08:04:32;43.00;;;22.67;;
5845;SDS011;2949;50.778;7.094;2022-08-26T08:06:58;46.70;;;27.27;;
5845;SDS011;2949;50.778;7.094;2022-08-26T08:09:24;43.20;;;26.33;;
5845;SDS011;2949;50.778;7.094;2022-08-26T08:11:50;53.80;;;26.90;;
5845;SDS011;2949;50.778;7.094;2022-08-26T08:14:16;46.30;;;28.80;;
5845;SDS011;2949;50.778;7.094;2022-08-26T08:16:43;44.53;;;28.40;;
5845;SDS011;2949;50.778;7.094;2022-08-26T08:19:09;54.23;;;29.27;;
5845;SDS011;2949;50.778;7.094;2022-08-26T08:21:35;53.57;;;27.40;;
5845;SDS011;2949;50.778;7.094;2022-08-26T08:24:00;46.17;;;28.53;;
5845;SDS011;2949;50.778;7.094;2022-08-26T08:26:26;44.90;;;25.60;;
5845;SDS011;2949;50.778;7.094;2022-08-26T08:28:55;42.27;;;24.03;;
5845;SDS011;2949;50.778;7.094;2022-08-26T08:31:22;37.03;;;22.37;;
5845;SDS011;2949;50.778;7.094;2022-08-26T08:33:53;45.70;;;23.03;;
5845;SDS011;2949;50.778;7.094;2022-08-26T08:36:19;40.20;;;23.87;;
5845;SDS011;2949;50.778;7.094;2022-08-26T08:38:44;34.93;;;20.90;;
5845;SDS011;2949;50.778;7.094;2022-08-26T08:44:02;30.60;;;18.80;;
5845;SDS011;2949;50.778;7.094;2022-08-26T08:46:32;30.40;;;18.00;;
5845;SDS011;2949;50.778;7.094;2022-08-26T08:48:58;27.90;;;15.00;;
5845;SDS011;2949;50.778;7.094;2022-08-26T08:51:44;32.47;;;18.20;;
5845;SDS011;2949;50.778;7.094;2022-08-26T08:54:20;40.50;;;21.63;;
5845;SDS011;2949;50.778;7.094;2022-08-26T08:56:49;53.73;;;32.80;;
5845;SDS011;2949;50.778;7.094;2022-08-26T08:59:25;54.77;;;32.00;;
5845;SDS011;2949;50.778;7.094;2022-08-26T09:01:59;46.57;;;29.63;;
5845;SDS011;2949;50.778;7.094;2022-08-26T09:07:18;36.13;;;22.83;;
5845;SDS011;2949;50.778;7.094;2022-08-26T09:09:57;39.03;;;23.17;;
5845;SDS011;2949;50.778;7.094;2022-08-26T09:12:28;47.90;;;27.13;;
5845;SDS011;2949;50.778;7.094;2022-08-26T09:15:03;57.40;;;36.53;;
5845;SDS011;2949;50.778;7.094;2022-08-26T09:18:43;55.50;;;36.07;;
5845;SDS011;2949;50.778;7.094;2022-08-26T09:21:21;64.07;;;33.10;;
5845;SDS011;2949;50.778;7.094;2022-08-26T09:23:41;63.43;;;30.50;;
5845;SDS011;2949;50.778;7.094;2022-08-26T09:26:16;53.83;;;31.00;;
5845;SDS011;2949;50.778;7.094;2022-08-26T09:28:44;52.57;;;31.80;;
5845;SDS011;2949;50.778;7.094;2022-08-26T09:31:24;50.40;;;31.07;;
5845;SDS011;2949;50.778;7.094;2022-08-26T09:34:34;44.00;;;31.63;;
5845;SDS011;2949;50.778;7.094;2022-08-26T09:36:55;51.23;;;32.03;;
5845;SDS011;2949;50.778;7.094;2022-08-26T09:44:53;48.33;;;29.20;;
5845;SDS011;2949;50.778;7.094;2022-08-26T09:47:25;42.60;;;28.77;;
5845;SDS011;2949;50.778;7.094;2022-08-26T09:50:10;51.63;;;30.50;;
5845;SDS011;2949;50.778;7.094;2022-08-26T09:55:40;55.93;;;32.77;;
5845;SDS011;2949;50.778;7.094;2022-08-26T09:58:07;48.97;;;31.60;;
5845;SDS011;2949;50.778;7.094;2022-08-26T10:00:38;49.47;;;33.70;;
5845;SDS011;2949;50.778;7.094;2022-08-26T10:03:27;43.37;;;30.53;;
5845;SDS011;2949;50.778;7.094;2022-08-26T10:05:58;47.33;;;31.37;;
5845;SDS011;2949;50.778;7.094;2022-08-26T10:08:28;42.57;;;27.07;;
5845;SDS011;2949;50.778;7.094;2022-08-26T10:10:58;43.80;;;28.37;;
5845;SDS011;2949;50.778;7.094;2022-08-26T10:13:36;40.43;;;28.20;;
5845;SDS011;2949;50.778;7.094;2022-08-26T10:18:41;35.13;;;26.20;;
5845;SDS011;2949;50.778;7.094;2022-08-26T10:23:41;31.93;;;20.33;;
5845;SDS011;2949;50.778;7.094;2022-08-26T10:26:15;36.87;;;21.57;;
5845;SDS011;2949;50.778;7.094;2022-08-26T10:28:59;35.83;;;21.90;;
5845;SDS011;2949;50.778;7.094;2022-08-26T10:31:34;36.20;;;21.27;;
5845;SDS011;2949;50.778;7.094;2022-08-26T10:34:04;33.50;;;22.47;;
5845;SDS011;2949;50.778;7.094;2022-08-26T10:36:32;37.93;;;24.13;;
5845;SDS011;2949;50.778;7.094;2022-08-26T10:39:36;29.57;;;21.20;;
5845;SDS011;2949;50.778;7.094;2022-08-26T10:42:05;36.23;;;20.40;;
5845;SDS011;2949;50.778;7.094;2022-08-26T10:44:37;23.10;;;17.60;;
5845;SDS011;2949;50.778;7.094;2022-08-26T10:47:14;31.10;;;18.03;;
5845;SDS011;2949;50.778;7.094;2022-08-26T10:49:43;25.47;;;16.40;;
5845;SDS011;2949;50.778;7.094;2022-08-26T10:52:21;23.73;;;16.87;;
5845;SDS011;2949;50.778;7.094;2022-08-26T10:55:02;28.77;;;16.17;;
5845;SDS011;2949;50.778;7.094;2022-08-26T11:00:46;17.20;;;11.63;;
5845;SDS011;2949;50.778;7.094;2022-08-26T11:03:57;20.70;;;14.47;;
5845;SDS011;2949;50.778;7.094;2022-08-26T11:06:36;26.43;;;15.97;;
5845;SDS011;2949;50.778;7.094;2022-08-26T11:09:03;31.97;;;18.43;;
5845;SDS011;2949;50.778;7.094;2022-08-26T11:14:06;29.90;;;17.30;;
5845;SDS011;2949;50.778;7.094;2022-08-26T11:16:34;24.40;;;17.57;;
5845;SDS011;2949;50.778;7.094;2022-08-26T11:19:04;35.60;;;18.93;;
5845;SDS011;2949;50.778;7.094;2022-08-26T11:27:03;37.03;;;12.73;;
5845;SDS011;2949;50.778;7.094;2022-08-26T11:35:00;24.50;;;15.20;;
5845;SDS011;2949;50.778;7.094;2022-08-26T11:37:32;28.80;;;15.47;;
5845;SDS011;2949;50.778;7.094;2022-08-26T11:40:06;16.43;;;11.23;;
5845;SDS011;2949;50.778;7.094;2022-08-26T11:42:38;12.97;;;9.10;;
5845;SDS011;2949;50.778;7.094;2022-08-26T11:48:17;11.93;;;6.20;;
5845;SDS011;2949;50.778;7.094;2022-08-26T11:51:00;13.40;;;6.23;;
5845;SDS011;2949;50.778;7.094;2022-08-26T11:53:35;9.20;;;5.90;;
5845;SDS011;2949;50.778;7.094;2022-08-26T11:58:57;13.17;;;6.70;;
5845;SDS011;2949;50.778;7.094;2022-08-26T12:01:30;13.73;;;7.50;;
5845;SDS011;2949;50.778;7.094;2022-08-26T12:03:59;10.10;;;6.73;;
5845;SDS011;2949;50.778;7.094;2022-08-26T12:06:36;17.77;;;7.70;;
5845;SDS011;2949;50.778;7.094;2022-08-26T12:09:31;14.50;;;6.03;;
5845;SDS011;2949;50.778;7.094;2022-08-26T12:12:11;9.23;;;5.70;;
5845;SDS011;2949;50.778;7.094;2022-08-26T12:14:37;7.97;;;5.57;;
5845;SDS011;2949;50.778;7.094;2022-08-26T12:17:16;12.83;;;4.13;;
5845;SDS011;2949;50.778;7.094;2022-08-26T12:19:43;5.80;;;5.00;;
5845;SDS011;2949;50.778;7.094;2022-08-26T12:22:42;12.00;;;6.80;;
5845;SDS011;2949;50.778;7.094;2022-08-26T12:25:04;26.17;;;5.93;;
5845;SDS011;2949;50.778;7.094;2022-08-26T12:27:36;7.00;;;4.60;;
5845;SDS011;2949;50.778;7.094;2022-08-26T12:32:35;10.03;;;4.20;;
5845;SDS011;2949;50.778;7.094;2022-08-26T12:35:05;9.77;;;4.20;;
5845;SDS011;2949;50.778;7.094;2022-08-26T12:37:34;16.90;;;5.03;;
5845;SDS011;2949;50.778;7.094;2022-08-26T12:42:51;10.07;;;5.03;;
5845;SDS011;2949;50.778;7.094;2022-08-26T12:45:31;10.60;;;5.93;;
5845;SDS011;2949;50.778;7.094;2022-08-26T12:48:05;10.00;;;5.67;;
5845;SDS011;2949;50.778;7.094;2022-08-26T12:50:32;10.63;;;4.63;;
5845;SDS011;2949;50.778;7.094;2022-08-26T12:53:00;10.07;;;4.67;;
5845;SDS011;2949;50.778;7.094;2022-08-26T12:55:44;10.53;;;4.60;;
5845;SDS011;2949;50.778;7.094;2022-08-26T12:58:27;16.17;;;4.70;;
5845;SDS011;2949;50.778;7.094;2022-08-26T13:03:50;8.83;;;5.17;;
5845;SDS011;2949;50.778;7.094;2022-08-26T13:08:48;11.30;;;4.47;;
5845;SDS011;2949;50.778;7.094;2022-08-26T13:11:26;13.00;;;4.17;;
5845;SDS011;2949;50.778;7.094;2022-08-26T13:14:05;13.20;;;4.07;;
5845;SDS011;2949;50.778;7.094;2022-08-26T13:16:33;10.27;;;3.53;;
5845;SDS011;2949;50.778;7.094;2022-08-26T13:19:02;14.47;;;4.60;;
5845;SDS011;2949;50.778;7.094;2022-08-26T13:21:30;5.70;;;4.00;;
5845;SDS011;2949;50.778;7.094;2022-08-26T13:24:42;8.17;;;4.00;;
5845;SDS011;2949;50.778;7.094;2022-08-26T13:26:59;4.20;;;3.30;;
5845;SDS011;2949;50.778;7.094;2022-08-26T13:29:25;14.40;;;4.40;;
5845;SDS011;2949;50.778;7.094;2022-08-26T13:31:51;8.00;;;4.07;;
5845;SDS011;2949;50.778;7.094;2022-08-26T13:34:18;9.80;;;3.77;;
5845;SDS011;2949;50.778;7.094;2022-08-26T13:36:46;9.60;;;4.30;;
5845;SDS011;2949;50.778;7.094;2022-08-26T13:39:13;13.27;;;4.60;;
5845;SDS011;2949;50.778;7.094;2022-08-26T13:41:39;7.43;;;3.70;;
5845;SDS011;2949;50.778;7.094;2022-08-26T13:44:04;8.23;;;3.73;;
5845;SDS011;2949;50.778;7.094;2022-08-26T13:46:30;12.63;;;4.17;;
5845;SDS011;2949;50.778;7.094;2022-08-26T13:48:56;10.23;;;3.97;;
5845;SDS011;2949;50.778;7.094;2022-08-26T13:51:22;21.80;;;5.37;;
5845;SDS011;2949;50.778;7.094;2022-08-26T13:53:49;13.10;;;5.90;;
5845;SDS011;2949;50.778;7.094;2022-08-26T13:56:15;10.00;;;5.00;;
5845;SDS011;2949;50.778;7.094;2022-08-26T13:58:40;10.93;;;5.00;;
5845;SDS011;2949;50.778;7.094;2022-08-26T14:01:06;13.17;;;4.40;;
5845;SDS011;2949;50.778;7.094;2022-08-26T14:03:32;16.40;;;4.37;;
5845;SDS011;2949;50.778;7.094;2022-08-26T14:05:58;11.27;;;4.87;;
5845;SDS011;2949;50.778;7.094;2022-08-26T14:08:24;3.90;;;2.90;;
5845;SDS011;2949;50.778;7.094;2022-08-26T14:10:49;11.03;;;2.90;;
5845;SDS011;2949;50.778;7.094;2022-08-26T14:13:15;6.63;;;2.97;;
5845;SDS011;2949;50.778;7.094;2022-08-26T14:15:41;4.27;;;2.37;;
5845;SDS011;2949;50.778;7.094;2022-08-26T14:18:07;10.10;;;2.73;;
5845;SDS011;2949;50.778;7.094;2022-08-26T14:20:36;11.23;;;2.70;;
5845;SDS011;2949;50.778;7.094;2022-08-26T14:23:02;8.77;;;2.40;;
5845;SDS011;2949;50.778;7.094;2022-08-26T14:25:28;5.70;;;2.50;;
5845;SDS011;2949;50.778;7.094;2022-08-26T14:27:54;13.10;;;3.00;;
5845;SDS011;2949;50.778;7.094;2022-08-26T14:30:23;8.17;;;2.30;;
5845;SDS011;2949;50.778;7.094;2022-08-26T14:32:52;9.00;;;2.10;;
5845;SDS011;2949;50.778;7.094;2022-08-26T14:35:22;5.53;;;2.40;;
5845;SDS011;2949;50.778;7.094;2022-08-26T14:37:50;8.53;;;2.00;;
5845;SDS011;2949;50.778;7.094;2022-08-26T14:40:16;3.67;;;2.17;;
5845;SDS011;2949;50.778;7.094;2022-08-26T14:42:47;9.20;;;2.20;;
5845;SDS011;2949;50.778;7.094;2022-08-26T14:45:18;10.47;;;2.27;;
5845;SDS011;2949;50.778;7.094;2022-08-26T14:47:46;10.67;;;2.30;;
5845;SDS011;2949;50.778;7.094;2022-08-26T14:50:13;6.07;;;2.20;;
5845;SDS011;2949;50.778;7.094;2022-08-26T14:52:41;10.00;;;2.47;;
5845;SDS011;2949;50.778;7.094;2022-08-26T14:55:25;12.40;;;2.57;;
5845;SDS011;2949;50.778;7.094;2022-08-26T14:57:52;4.83;;;2.17;;
5845;SDS011;2949;50.778;7.094;2022-08-26T15:00:17;11.83;;;2.57;;
5845;SDS011;2949;50.778;7.094;2022-08-26T15:02:43;8.20;;;2.00;;
5845;SDS011;2949;50.778;7.094;2022-08-26T15:05:09;7.27;;;1.80;;
5845;SDS011;2949;50.778;7.094;2022-08-26T15:07:36;15.13;;;2.80;;
5845;SDS011;2949;50.778;7.094;2022-08-26T15:10:03;12.00;;;1.90;;
5845;SDS011;2949;50.778;7.094;2022-08-26T15:12:30;9.27;;;2.03;;
5845;SDS011;2949;50.778;7.094;2022-08-26T15:14:56;13.30;;;2.27;;
5845;SDS011;2949;50.778;7.094;2022-08-26T15:17:22;13.33;;;2.50;;
5845;SDS011;2949;50.778;7.094;2022-08-26T15:19:48;6.33;;;1.97;;
5845;SDS011;2949;50.778;7.094;2022-08-26T15:22:13;10.90;;;2.00;;
5845;SDS011;2949;50.778;7.094;2022-08-26T15:24:39;4.73;;;1.70;;
5845;SDS011;2949;50.778;7.094;2022-08-26T15:27:04;4.70;;;1.80;;
5845;SDS011;2949;50.778;7.094;2022-08-26T15:29:30;9.60;;;2.13;;
5845;SDS011;2949;50.778;7.094;2022-08-26T15:31:55;10.57;;;2.30;;
5845;SDS011;2949;50.778;7.094;2022-08-26T15:34:21;18.77;;;2.20;;
5845;SDS011;2949;50.778;7.094;2022-08-26T15:36:46;9.50;;;2.40;;
5845;SDS011;2949;50.778;7.094;2022-08-26T15:39:12;16.87;;;2.30;;
5845;SDS011;2949;50.778;7.094;2022-08-26T15:41:39;6.70;;;2.70;;
5845;SDS011;2949;50.778;7.094;2022-08-26T15:44:05;10.17;;;3.83;;
5845;SDS011;2949;50.778;7.094;2022-08-26T15:46:31;20.80;;;11.40;;
5845;SDS011;2949;50.778;7.094;2022-08-26T15:48:57;15.23;;;12.20;;
5845;SDS011;2949;50.778;7.094;2022-08-26T15:51:28;11.60;;;3.00;;
5845;SDS011;2949;50.778;7.094;2022-08-26T15:53:58;10.97;;;3.67;;
5845;SDS011;2949;50.778;7.094;2022-08-26T15:56:26;18.13;;;3.30;;
5845;SDS011;2949;50.778;7.094;2022-08-26T15:58:53;19.33;;;3.83;;
5845;SDS011;2949;50.778;7.094;2022-08-26T16:01:20;11.23;;;4.03;;
5845;SDS011;2949;50.778;7.094;2022-08-26T16:03:46;8.50;;;4.33;;